createdAt,value
2022-09-13T00:00:35.637Z,16.10
2022-09-13T00:03:03.055Z,16.10
2022-09-13T00:05:30.203Z,16.10
2022-09-13T00:07:57.837Z,16.10
2022-09-13T00:10:25.295Z,15.90
2022-09-13T00:12:53.005Z,15.90
2022-09-13T00:15:20.210Z,16.00
2022-09-13T00:17:46.929Z,16.00
2022-09-13T00:20:13.854Z,15.90
2022-09-13T00:22:40.393Z,15.80
2022-09-13T00:25:08.181Z,15.70
2022-09-13T00:27:35.709Z,15.70
2022-09-13T00:30:04.254Z,15.70
2022-09-13T00:32:30.975Z,15.70
2022-09-13T00:34:58.175Z,15.70
2022-09-13T00:37:24.720Z,15.70
2022-09-13T00:39:51.273Z,15.80
2022-09-13T00:42:18.233Z,15.70
2022-09-13T00:44:56.010Z,15.60
2022-09-13T00:47:45.033Z,15.50
2022-09-13T00:50:34.355Z,15.50
2022-09-13T00:53:04.214Z,15.50
2022-09-13T00:55:38.198Z,15.60
2022-09-13T00:58:08.548Z,15.80
2022-09-13T01:00:36.313Z,15.70
2022-09-13T01:03:06.726Z,15.50
2022-09-13T01:05:36.794Z,15.40
2022-09-13T01:08:10.098Z,15.30
2022-09-13T01:10:39.485Z,15.30
2022-09-13T01:13:19.549Z,15.30
2022-09-13T01:15:46.430Z,15.30
2022-09-13T01:18:13.413Z,15.20
2022-09-13T01:20:49.194Z,15.20
2022-09-13T01:23:37.728Z,15.20
2022-09-13T01:26:33.869Z,15.20
2022-09-13T01:29:23.898Z,15.00
2022-09-13T01:32:30.981Z,15.00
2022-09-13T01:35:24.018Z,14.90
2022-09-13T01:38:12.403Z,15.00
2022-09-13T01:40:48.156Z,14.80
2022-09-13T01:43:47.964Z,14.70
2022-09-13T01:47:02.858Z,14.80
2022-09-13T01:49:53.054Z,15.10
2022-09-13T01:52:35.705Z,15.10
2022-09-13T01:55:23.123Z,15.00
2022-09-13T01:58:27.382Z,14.90
2022-09-13T02:01:05.226Z,15.00
2022-09-13T02:03:40.898Z,15.00
2022-09-13T02:06:13.773Z,14.90
2022-09-13T02:08:52.656Z,14.80
2022-09-13T02:11:22.595Z,14.90
2022-09-13T02:14:16.891Z,14.80
2022-09-13T02:16:51.254Z,14.70
2022-09-13T02:19:22.876Z,14.70
2022-09-13T02:21:59.834Z,14.70
2022-09-13T02:24:42.120Z,14.80
2022-09-13T02:27:16.575Z,14.80
2022-09-13T02:29:46.910Z,14.80
2022-09-13T02:32:30.179Z,14.80
2022-09-13T02:35:13.347Z,14.80
2022-09-13T02:37:42.730Z,14.80
2022-09-13T02:40:15.162Z,14.90
2022-09-13T02:42:50.739Z,14.90
2022-09-13T02:45:18.268Z,14.80
2022-09-13T02:48:10.226Z,14.80
2022-09-13T02:51:03.943Z,14.80
2022-09-13T02:54:15.539Z,14.80
2022-09-13T02:57:12.398Z,14.70
2022-09-13T02:59:38.997Z,14.60
2022-09-13T03:02:12.660Z,14.50
2022-09-13T03:04:39.315Z,14.40
2022-09-13T03:07:13.533Z,14.40
2022-09-13T03:09:47.690Z,14.30
2022-09-13T03:12:43.301Z,14.40
2022-09-13T03:15:18.814Z,14.40
2022-09-13T03:18:18.985Z,14.40
2022-09-13T03:21:02.474Z,14.50
2022-09-13T03:23:35.040Z,14.40
2022-09-13T03:26:20.366Z,14.60
2022-09-13T03:29:03.877Z,14.60
2022-09-13T03:31:52.967Z,14.60
2022-09-13T03:34:47.709Z,14.60
2022-09-13T03:37:29.995Z,14.70
2022-09-13T03:40:03.386Z,14.70
2022-09-13T03:42:43.010Z,14.70
2022-09-13T03:45:11.477Z,14.60
2022-09-13T03:47:42.242Z,14.60
2022-09-13T03:50:10.381Z,14.60
2022-09-13T03:52:37.418Z,14.60
2022-09-13T03:55:04.232Z,14.50
2022-09-13T03:57:30.738Z,14.60
2022-09-13T03:59:57.751Z,14.60
2022-09-13T04:02:26.586Z,14.50
2022-09-13T04:04:53.365Z,14.60
2022-09-13T04:07:22.419Z,14.60
2022-09-13T04:09:49.559Z,14.60
2022-09-13T04:12:17.732Z,14.50
2022-09-13T04:14:44.834Z,14.50
2022-09-13T04:17:12.316Z,14.50
2022-09-13T04:19:38.898Z,14.60
2022-09-13T04:22:05.437Z,14.60
2022-09-13T04:24:32.135Z,14.60
2022-09-13T04:26:58.899Z,14.50
2022-09-13T04:29:26.353Z,14.50
2022-09-13T04:31:54.570Z,14.50
2022-09-13T04:34:24.595Z,14.40
2022-09-13T04:36:52.936Z,14.50
2022-09-13T04:39:20.517Z,14.60
2022-09-13T04:41:49.033Z,14.60
2022-09-13T04:44:17.380Z,14.60
2022-09-13T04:46:48.132Z,14.60
2022-09-13T04:49:15.834Z,14.60
2022-09-13T04:51:42.471Z,14.60
2022-09-13T04:54:14.557Z,14.60
2022-09-13T04:56:44.801Z,14.60
2022-09-13T04:59:12.405Z,14.70
2022-09-13T05:01:39.501Z,14.70
2022-09-13T05:04:07.341Z,14.70
2022-09-13T05:06:33.933Z,14.70
2022-09-13T05:09:00.485Z,14.80
2022-09-13T05:11:28.630Z,14.80
2022-09-13T05:13:57.891Z,14.80
2022-09-13T05:16:29.817Z,14.90
2022-09-13T05:18:57.041Z,14.80
2022-09-13T05:21:24.097Z,14.70
2022-09-13T05:23:52.149Z,14.70
2022-09-13T05:26:18.801Z,14.90
2022-09-13T05:28:45.383Z,14.90
2022-09-13T05:31:21.282Z,14.90
2022-09-13T05:33:52.757Z,14.90
2022-09-13T05:36:19.709Z,14.90
2022-09-13T05:38:46.408Z,14.80
2022-09-13T05:41:12.956Z,14.80
2022-09-13T05:43:39.527Z,14.90
2022-09-13T05:46:09.259Z,15.00
2022-09-13T05:48:35.966Z,14.90
2022-09-13T05:51:10.368Z,15.00
2022-09-13T05:53:39.901Z,15.00
2022-09-13T05:56:07.770Z,15.00
2022-09-13T05:58:35.310Z,14.90
2022-09-13T06:01:01.850Z,15.00
2022-09-13T06:03:28.344Z,14.90
2022-09-13T06:05:56.743Z,14.80
2022-09-13T06:08:25.122Z,14.80
2022-09-13T06:11:00.150Z,14.80
2022-09-13T06:13:28.063Z,14.90
2022-09-13T06:15:56.236Z,15.00
2022-09-13T06:18:23.317Z,15.10
2022-09-13T06:20:50.557Z,15.10
2022-09-13T06:23:17.503Z,14.90
2022-09-13T06:25:44.223Z,14.90
2022-09-13T06:28:10.747Z,15.00
2022-09-13T06:30:37.291Z,15.10
2022-09-13T06:33:04.256Z,15.20
2022-09-13T06:35:30.816Z,15.30
2022-09-13T06:37:58.460Z,15.20
2022-09-13T06:40:25.766Z,15.30
2022-09-13T06:42:52.384Z,15.40
2022-09-13T06:45:19.026Z,15.40
2022-09-13T06:47:45.566Z,15.50
2022-09-13T06:50:12.287Z,15.50
2022-09-13T06:52:38.966Z,15.50
2022-09-13T06:55:09.511Z,15.60
2022-09-13T06:57:38.617Z,15.70
2022-09-13T07:00:05.661Z,15.70
2022-09-13T07:02:32.688Z,15.70
2022-09-13T07:04:59.209Z,15.80
2022-09-13T07:07:25.722Z,15.80
2022-09-13T07:09:52.211Z,15.70
2022-09-13T07:12:20.558Z,15.70
2022-09-13T07:14:47.373Z,15.90
2022-09-13T07:17:13.941Z,16.00
2022-09-13T07:19:40.516Z,16.00
2022-09-13T07:22:07.425Z,16.00
2022-09-13T07:24:33.918Z,16.10
2022-09-13T07:27:00.657Z,16.20
2022-09-13T07:29:27.252Z,16.20
2022-09-13T07:31:54.938Z,16.20
2022-09-13T07:34:23.734Z,16.30
2022-09-13T07:36:52.268Z,16.30
2022-09-13T07:39:22.350Z,16.30
2022-09-13T07:41:50.483Z,16.40
2022-09-13T07:44:16.985Z,16.30
2022-09-13T07:46:44.179Z,16.50
2022-09-13T07:49:12.855Z,16.50
2022-09-13T07:51:41.394Z,16.60
2022-09-13T07:54:12.662Z,16.60
2022-09-13T07:56:41.185Z,16.70
2022-09-13T07:59:12.873Z,16.70
2022-09-13T08:01:45.566Z,16.80
2022-09-13T08:04:17.097Z,16.80
2022-09-13T08:06:44.114Z,16.90
2022-09-13T08:09:11.366Z,17.10
2022-09-13T08:11:40.817Z,17.20
2022-09-13T08:14:10.976Z,17.30
2022-09-13T08:16:39.353Z,17.30
2022-09-13T08:19:07.417Z,17.30
2022-09-13T08:21:38.721Z,17.40
2022-09-13T08:24:08.525Z,17.40
2022-09-13T08:26:36.349Z,17.50
2022-09-13T08:29:05.842Z,17.60
2022-09-13T08:31:33.057Z,17.70
2022-09-13T08:33:59.717Z,17.80
2022-09-13T08:36:28.320Z,17.80
2022-09-13T08:38:57.739Z,17.70
2022-09-13T08:41:45.017Z,17.70
2022-09-13T08:44:25.663Z,17.80
2022-09-13T08:47:11.252Z,18.00
2022-09-13T08:49:41.634Z,18.10
2022-09-13T08:52:35.285Z,18.20
2022-09-13T08:55:11.897Z,18.40
2022-09-13T08:57:51.074Z,18.40
2022-09-13T09:00:40.781Z,18.50
2022-09-13T09:03:14.541Z,18.60
2022-09-13T09:05:51.873Z,18.70
2022-09-13T09:08:27.413Z,18.70
2022-09-13T09:10:56.984Z,18.70
2022-09-13T09:13:37.485Z,18.70
2022-09-13T09:16:26.077Z,18.80
2022-09-13T09:18:54.379Z,19.00
2022-09-13T09:21:21.877Z,19.00
2022-09-13T09:23:53.560Z,19.00
2022-09-13T09:26:29.569Z,18.90
2022-09-13T09:29:01.473Z,18.90
2022-09-13T09:31:34.505Z,18.90
2022-09-13T09:34:06.620Z,18.80
2022-09-13T09:36:44.514Z,18.80
2022-09-13T09:39:13.844Z,18.70
2022-09-13T09:41:40.550Z,18.60
2022-09-13T09:44:32.716Z,18.50
2022-09-13T09:47:10.822Z,18.50
2022-09-13T09:49:59.262Z,18.40
2022-09-13T09:52:44.211Z,18.40
2022-09-13T09:55:51.912Z,18.30
2022-09-13T09:58:35.935Z,18.30
2022-09-13T10:01:02.813Z,18.40
2022-09-13T10:03:32.350Z,18.40
2022-09-13T10:06:11.362Z,18.40
2022-09-13T10:08:40.343Z,18.40
2022-09-13T10:11:08.081Z,18.40
2022-09-13T10:13:35.029Z,18.30
2022-09-13T10:16:04.690Z,18.40
2022-09-13T10:18:44.037Z,18.30
2022-09-13T10:21:17.516Z,18.30
2022-09-13T10:23:44.992Z,18.30
2022-09-13T10:26:23.235Z,18.30
2022-09-13T10:29:02.937Z,18.40
2022-09-13T10:31:38.311Z,18.50
2022-09-13T10:34:17.249Z,18.60
2022-09-13T10:36:59.571Z,18.70
2022-09-13T10:39:28.569Z,18.80
2022-09-13T10:42:00.405Z,18.80
2022-09-13T10:44:44.832Z,18.80
2022-09-13T10:47:18.352Z,18.80
2022-09-13T10:49:52.811Z,19.10
2022-09-13T10:52:42.904Z,19.30
2022-09-13T10:55:18.855Z,19.30
2022-09-13T10:57:47.873Z,19.30
2022-09-13T11:00:17.598Z,19.50
2022-09-13T11:03:08.913Z,19.60
2022-09-13T11:05:47.732Z,19.70
2022-09-13T11:08:38.132Z,19.70
2022-09-13T11:11:15.201Z,19.70
2022-09-13T11:14:00.604Z,19.80
2022-09-13T11:16:33.033Z,19.90
2022-09-13T11:19:21.142Z,20.00
2022-09-13T11:22:02.438Z,19.80
2022-09-13T11:24:46.026Z,19.70
2022-09-13T11:27:46.298Z,19.80
2022-09-13T11:30:29.717Z,20.00
2022-09-13T11:33:17.910Z,20.20
2022-09-13T11:36:18.290Z,20.10
2022-09-13T11:39:03.518Z,20.40
2022-09-13T11:41:54.219Z,20.50
2022-09-13T11:44:48.786Z,20.60
2022-09-13T11:47:44.961Z,20.80
2022-09-13T11:50:40.116Z,21.00
2022-09-13T11:53:15.397Z,21.00
2022-09-13T11:56:01.805Z,20.90
2022-09-13T11:59:06.795Z,21.10
2022-09-13T12:01:40.146Z,21.20
2022-09-13T12:04:13.920Z,21.20
2022-09-13T12:06:46.226Z,21.20
2022-09-13T12:09:15.731Z,21.30
2022-09-13T12:11:48.111Z,21.30
2022-09-13T12:14:25.533Z,21.30
2022-09-13T12:16:59.942Z,21.30
2022-09-13T12:19:50.092Z,21.40
2022-09-13T12:22:18.033Z,21.30
2022-09-13T12:24:48.042Z,21.30
2022-09-13T12:27:45.429Z,21.50
2022-09-13T12:30:20.562Z,21.60
2022-09-13T12:32:48.204Z,21.60
2022-09-13T12:35:36.073Z,21.60
2022-09-13T12:38:31.482Z,21.50
2022-09-13T12:40:58.357Z,21.80
2022-09-13T12:43:59.013Z,22.30
2022-09-13T12:47:15.951Z,22.80
2022-09-13T12:49:55.260Z,23.20
2022-09-13T12:52:40.260Z,23.40
2022-09-13T12:55:44.824Z,23.30
2022-09-13T12:58:27.010Z,22.90
2022-09-13T13:01:15.552Z,23.10
2022-09-13T13:03:48.269Z,23.00
2022-09-13T13:06:26.749Z,22.80
2022-09-13T13:08:56.458Z,22.80
2022-09-13T13:11:26.474Z,22.70
2022-09-13T13:14:09.163Z,22.70
2022-09-13T13:16:40.746Z,22.70
2022-09-13T13:19:33.761Z,22.50
2022-09-13T13:22:37.624Z,22.50
2022-09-13T13:25:28.841Z,22.40
2022-09-13T13:27:55.575Z,22.40
2022-09-13T13:30:51.105Z,22.50
2022-09-13T13:33:21.640Z,22.70
2022-09-13T13:35:48.897Z,23.00
2022-09-13T13:38:37.462Z,23.00
2022-09-13T13:41:28.643Z,22.90
2022-09-13T13:43:55.139Z,22.90
2022-09-13T13:46:32.309Z,22.90
2022-09-13T13:49:41.332Z,23.00
2022-09-13T13:52:10.613Z,22.90
2022-09-13T13:54:44.057Z,22.80
2022-09-13T13:57:22.930Z,22.70
2022-09-13T13:59:51.909Z,22.70
2022-09-13T14:02:23.374Z,22.60
2022-09-13T14:05:25.089Z,22.60
2022-09-13T14:08:26.178Z,22.50
2022-09-13T14:11:18.228Z,22.50
2022-09-13T14:14:11.470Z,22.50
2022-09-13T14:17:26.967Z,22.50
2022-09-13T14:19:59.606Z,22.40
2022-09-13T14:22:27.817Z,22.50
2022-09-13T14:24:59.211Z,22.60
2022-09-13T14:27:29.439Z,22.50
2022-09-13T14:30:20.188Z,22.40
2022-09-13T14:32:53.013Z,22.20
2022-09-13T14:35:30.190Z,22.10
2022-09-13T14:38:20.679Z,22.00
2022-09-13T14:40:52.771Z,22.00
2022-09-13T14:43:22.230Z,22.00
2022-09-13T14:45:53.752Z,21.90
2022-09-13T14:48:28.114Z,21.70
2022-09-13T14:51:00.533Z,21.60
2022-09-13T14:53:30.959Z,21.50
2022-09-13T14:56:05.244Z,21.30
2022-09-13T14:58:51.937Z,21.20
2022-09-13T15:01:26.844Z,21.00
2022-09-13T15:03:57.046Z,20.80
2022-09-13T15:06:29.814Z,20.80
2022-09-13T15:09:11.499Z,20.80
2022-09-13T15:11:53.590Z,20.70
2022-09-13T15:14:26.039Z,20.70
2022-09-13T15:16:59.218Z,20.60
2022-09-13T15:19:29.811Z,20.50
2022-09-13T15:22:05.385Z,20.60
2022-09-13T15:24:34.090Z,20.50
2022-09-13T15:27:17.082Z,20.60
2022-09-13T15:29:49.834Z,20.60
2022-09-13T15:32:29.200Z,20.50
2022-09-13T15:34:57.406Z,20.50
2022-09-13T15:37:32.661Z,20.50
2022-09-13T15:40:22.329Z,20.40
2022-09-13T15:42:52.794Z,20.30
2022-09-13T15:45:21.326Z,20.20
2022-09-13T15:47:49.934Z,20.20
2022-09-13T15:50:30.892Z,20.20
2022-09-13T15:53:01.357Z,20.20
2022-09-13T15:55:30.706Z,20.20
2022-09-13T15:57:57.318Z,20.10
2022-09-13T16:00:27.590Z,20.10
2022-09-13T16:02:54.410Z,20.10
2022-09-13T16:05:21.440Z,20.20
2022-09-13T16:07:48.186Z,20.10
2022-09-13T16:10:21.201Z,20.20
2022-09-13T16:12:48.029Z,20.20
2022-09-13T16:15:15.140Z,20.10
2022-09-13T16:17:42.126Z,20.10
2022-09-13T16:20:13.938Z,20.10
2022-09-13T16:22:40.658Z,20.00
2022-09-13T16:25:07.890Z,20.10
2022-09-13T16:27:34.446Z,20.00
2022-09-13T16:30:01.177Z,20.00
2022-09-13T16:32:27.775Z,20.00
2022-09-13T16:34:54.248Z,20.00
2022-09-13T16:37:20.964Z,20.00
2022-09-13T16:39:47.610Z,20.00
2022-09-13T16:42:15.730Z,20.00
2022-09-13T16:44:42.241Z,20.00
2022-09-13T16:47:08.850Z,20.00
2022-09-13T16:49:35.439Z,20.00
2022-09-13T16:52:03.655Z,20.00
2022-09-13T16:54:30.921Z,19.90
2022-09-13T16:56:58.533Z,19.90
2022-09-13T16:59:25.416Z,19.90
2022-09-13T17:01:52.552Z,19.90
2022-09-13T17:04:19.301Z,19.90
2022-09-13T17:06:45.882Z,19.90
2022-09-13T17:09:12.501Z,19.80
2022-09-13T17:11:41.100Z,19.80
2022-09-13T17:14:10.815Z,19.70
2022-09-13T17:16:44.409Z,19.70
2022-09-13T17:19:17.253Z,19.60
2022-09-13T17:21:44.537Z,19.60
2022-09-13T17:24:13.566Z,19.60
2022-09-13T17:26:41.791Z,19.60
2022-09-13T17:29:08.406Z,19.60
2022-09-13T17:31:35.631Z,19.60
2022-09-13T17:34:02.424Z,19.60
2022-09-13T17:36:29.027Z,19.60
2022-09-13T17:38:56.874Z,19.60
2022-09-13T17:41:24.779Z,19.50
2022-09-13T17:43:51.621Z,19.50
2022-09-13T17:46:22.344Z,19.60
2022-09-13T17:48:51.753Z,19.50
2022-09-13T17:51:20.598Z,19.50
2022-09-13T17:53:50.047Z,19.50
2022-09-13T17:56:21.864Z,19.50
2022-09-13T17:58:49.534Z,19.50
2022-09-13T18:01:16.241Z,19.40
2022-09-13T18:03:43.416Z,19.40
2022-09-13T18:06:11.673Z,19.30
2022-09-13T18:08:38.970Z,19.30
2022-09-13T18:11:16.036Z,19.30
2022-09-13T18:13:45.892Z,19.20
2022-09-13T18:16:20.748Z,19.30
2022-09-13T18:18:49.567Z,19.30
2022-09-13T18:21:20.370Z,19.30
2022-09-13T18:23:49.261Z,19.20
2022-09-13T18:26:20.485Z,19.20
2022-09-13T18:28:52.114Z,19.30
2022-09-13T18:31:18.696Z,19.30
2022-09-13T18:33:45.879Z,19.20
2022-09-13T18:36:14.889Z,19.20
2022-09-13T18:38:46.433Z,19.20
2022-09-13T18:41:15.635Z,19.20
2022-09-13T18:43:44.490Z,19.20
2022-09-13T18:46:16.045Z,19.10
2022-09-13T18:48:47.927Z,19.10
2022-09-13T18:51:16.869Z,19.00
2022-09-13T18:53:44.511Z,19.10
2022-09-13T18:56:13.707Z,19.10
2022-09-13T18:58:41.863Z,19.10
2022-09-13T19:01:12.576Z,19.10
2022-09-13T19:03:40.273Z,19.10
2022-09-13T19:06:11.046Z,19.10
2022-09-13T19:08:37.689Z,19.20
2022-09-13T19:11:04.993Z,19.20
2022-09-13T19:13:32.004Z,19.10
2022-09-13T19:15:59.938Z,19.00
2022-09-13T19:18:27.196Z,19.10
2022-09-13T19:21:02.458Z,19.10
2022-09-13T19:23:43.156Z,19.00
2022-09-13T19:26:27.595Z,19.00
2022-09-13T19:28:59.311Z,19.00
2022-09-13T19:31:27.616Z,19.00
2022-09-13T19:33:55.593Z,19.00
2022-09-13T19:36:25.798Z,19.00
2022-09-13T19:38:54.776Z,18.90
2022-09-13T19:41:23.553Z,18.90
2022-09-13T19:43:52.432Z,18.90
2022-09-13T19:46:22.422Z,18.80
2022-09-13T19:48:53.066Z,18.80
2022-09-13T19:51:24.793Z,18.80
2022-09-13T19:53:57.703Z,18.80
2022-09-13T19:56:31.942Z,18.80
2022-09-13T19:58:59.655Z,18.90
2022-09-13T20:01:29.392Z,18.80
2022-09-13T20:04:01.361Z,18.80
2022-09-13T20:06:30.116Z,18.80
2022-09-13T20:09:01.019Z,18.80
2022-09-13T20:11:28.955Z,18.80
2022-09-13T20:13:56.542Z,18.80
2022-09-13T20:16:26.380Z,18.80
2022-09-13T20:18:54.486Z,18.80
2022-09-13T20:21:20.981Z,18.80
2022-09-13T20:23:47.510Z,18.80
2022-09-13T20:26:23.854Z,18.70
2022-09-13T20:28:54.939Z,18.70
2022-09-13T20:31:21.521Z,18.70
2022-09-13T20:33:48.251Z,18.70
2022-09-13T20:36:17.607Z,18.70
2022-09-13T20:38:48.131Z,18.70
2022-09-13T20:41:16.838Z,18.70
2022-09-13T20:43:43.439Z,18.70
2022-09-13T20:46:12.595Z,18.70
2022-09-13T20:48:39.674Z,18.70
2022-09-13T20:51:12.774Z,18.70
2022-09-13T20:53:39.779Z,18.70
2022-09-13T20:56:09.637Z,18.60
2022-09-13T20:58:37.253Z,18.60
2022-09-13T21:01:13.530Z,18.70
2022-09-13T21:03:42.853Z,18.70
2022-09-13T21:06:10.453Z,18.60
2022-09-13T21:08:43.633Z,18.70
2022-09-13T21:11:15.805Z,18.70
2022-09-13T21:13:49.262Z,18.70
2022-09-13T21:16:20.213Z,18.70
2022-09-13T21:18:47.419Z,18.70
2022-09-13T21:21:23.584Z,18.70
2022-09-13T21:23:50.580Z,18.70
2022-09-13T21:26:20.775Z,18.70
2022-09-13T21:28:48.081Z,18.60
2022-09-13T21:31:21.951Z,18.60
2022-09-13T21:33:52.885Z,18.60
2022-09-13T21:36:19.369Z,18.60
2022-09-13T21:38:46.078Z,18.60
2022-09-13T21:41:15.082Z,18.60
2022-09-13T21:43:42.247Z,18.60
2022-09-13T21:46:17.027Z,18.60
2022-09-13T21:48:45.749Z,18.60
2022-09-13T21:51:20.546Z,18.50
2022-09-13T21:53:48.618Z,18.50
2022-09-13T21:56:17.939Z,18.50
2022-09-13T21:58:50.116Z,18.50
2022-09-13T22:01:19.153Z,18.50
2022-09-13T22:03:46.946Z,18.50
2022-09-13T22:06:17.100Z,18.50
2022-09-13T22:08:51.998Z,18.50
2022-09-13T22:11:21.820Z,18.50
2022-09-13T22:13:49.267Z,18.50
2022-09-13T22:16:36.596Z,18.50
2022-09-13T22:19:12.549Z,18.50
2022-09-13T22:21:42.070Z,18.50
2022-09-13T22:24:09.977Z,18.50
2022-09-13T22:26:39.606Z,18.60
2022-09-13T22:29:07.440Z,18.60
2022-09-13T22:31:37.081Z,18.50
2022-09-13T22:34:04.925Z,18.50
2022-09-13T22:36:31.585Z,18.50
2022-09-13T22:38:58.130Z,18.40
2022-09-13T22:41:32.533Z,18.50
2022-09-13T22:44:00.297Z,18.40
2022-09-13T22:46:38.525Z,18.40
2022-09-13T22:49:05.747Z,18.40
2022-09-13T22:51:32.765Z,18.40
2022-09-13T22:54:04.876Z,18.40
2022-09-13T22:56:34.713Z,18.30
2022-09-13T22:59:04.967Z,18.30
2022-09-13T23:01:31.734Z,18.30
2022-09-13T23:04:00.549Z,18.30
2022-09-13T23:06:28.497Z,18.40
2022-09-13T23:08:57.840Z,18.40
2022-09-13T23:11:30.052Z,18.30
2022-09-13T23:14:00.502Z,18.30
2022-09-13T23:16:33.763Z,18.30
2022-09-13T23:19:00.760Z,18.30
2022-09-13T23:21:31.218Z,18.30
2022-09-13T23:23:59.626Z,18.30
2022-09-13T23:26:26.765Z,18.20
2022-09-13T23:28:58.182Z,18.20
2022-09-13T23:31:27.250Z,18.30
2022-09-13T23:33:57.102Z,18.20
2022-09-13T23:36:27.346Z,18.20
2022-09-13T23:38:57.190Z,18.20
2022-09-13T23:41:25.759Z,18.20
2022-09-13T23:43:53.158Z,18.10
2022-09-13T23:46:20.108Z,18.10
2022-09-13T23:48:47.049Z,18.10
2022-09-13T23:51:16.813Z,18.10
2022-09-13T23:53:43.981Z,18.10
2022-09-13T23:56:11.576Z,18.00
2022-09-13T23:58:38.686Z,18.00
